Time;durP1;ratioP1;P1;durP2;ratioP2;P2;SDS_P1;SDS_P2;PMS_P1;PMS_P2;Temp;Humidity;BMP_temperature;BMP_pressure;BME280_temperature;BME280_humidity;BME280_pressure;Samples;Min_cycle;Max_cycle;Signal;HPM_P1;HPM_P2
2021/12/09 00:02:02;;;;;;;6.97;3.78;;;4.50;99.90;;;;;;5091297;28;20255;-62
2021/12/09 00:04:30;;;;;;;9.32;4.20;;;4.40;99.90;;;;;;5092793;28;20261;-62
2021/12/09 00:06:59;;;;;;;8.38;4.60;;;4.30;99.90;;;;;;5092920;28;20269;-60
2021/12/09 00:09:25;;;;;;;10.38;4.50;;;4.30;99.90;;;;;;5091624;28;20188;-60
2021/12/09 00:11:51;;;;;;;10.65;4.72;;;4.20;99.90;;;;;;5092815;28;20188;-61
2021/12/09 00:14:24;;;;;;;12.45;5.47;;;4.20;99.90;;;;;;5092612;28;20190;-60
2021/12/09 00:16:52;;;;;;;9.73;5.78;;;4.20;99.90;;;;;;5093056;28;20704;-61
2021/12/09 00:19:18;;;;;;;8.07;5.40;;;4.30;99.90;;;;;;5092506;28;20744;-62
2021/12/09 00:21:44;;;;;;;11.50;6.10;;;4.30;99.90;;;;;;5096308;28;20263;-61
2021/12/09 00:24:10;;;;;;;10.93;6.13;;;4.30;99.90;;;;;;5110339;28;20240;-61
2021/12/09 00:26:36;;;;;;;10.95;6.07;;;4.30;99.90;;;;;;5092655;28;20180;-62
2021/12/09 00:29:02;;;;;;;17.73;7.55;;;4.30;99.90;;;;;;5092274;28;20774;-60
2021/12/09 00:31:28;;;;;;;12.27;7.57;;;4.30;99.90;;;;;;5091050;28;20254;-61
2021/12/09 00:33:56;;;;;;;12.13;7.63;;;4.30;99.90;;;;;;5092251;28;20172;-61
2021/12/09 00:36:27;;;;;;;12.43;7.68;;;4.30;99.90;;;;;;5092205;28;20213;-61
2021/12/09 00:38:57;;;;;;;16.58;9.32;;;4.30;99.90;;;;;;5092325;28;20576;-61
2021/12/09 00:41:22;;;;;;;18.20;9.63;;;4.20;99.90;;;;;;5092160;28;20176;-61
2021/12/09 00:43:49;;;;;;;17.33;10.43;;;4.30;99.90;;;;;;5092510;28;20249;-61
2021/12/09 00:46:14;;;;;;;19.52;10.30;;;4.20;99.90;;;;;;5092023;28;20180;-62
2021/12/09 00:48:40;;;;;;;17.35;11.00;;;4.30;99.90;;;;;;5092251;28;20288;-62
2021/12/09 00:51:06;;;;;;;27.58;11.02;;;4.30;99.90;;;;;;5091746;28;20184;-62
2021/12/09 00:53:33;;;;;;;17.63;10.60;;;4.20;99.90;;;;;;5091268;28;20176;-62
2021/12/09 00:55:59;;;;;;;21.48;10.75;;;4.20;99.90;;;;;;5091665;28;20296;-62
2021/12/09 00:58:25;;;;;;;19.42;11.25;;;4.20;99.90;;;;;;5092401;28;20329;-62
2021/12/09 01:00:50;;;;;;;23.83;10.93;;;4.20;99.90;;;;;;5091859;28;20706;-62
2021/12/09 01:03:17;;;;;;;19.38;9.88;;;4.10;99.90;;;;;;5091749;28;20226;-62
2021/12/09 01:05:46;;;;;;;20.35;10.52;;;4.20;99.90;;;;;;5091138;28;20188;-62
2021/12/09 01:08:13;;;;;;;16.40;10.13;;;4.10;99.90;;;;;;5091679;28;20211;-61
2021/12/09 01:10:39;;;;;;;19.42;10.43;;;4.10;99.90;;;;;;5091139;28;20180;-61
2021/12/09 01:13:05;;;;;;;20.50;11.18;;;4.10;99.90;;;;;;5091457;28;20182;-61
2021/12/09 01:15:31;;;;;;;19.95;10.88;;;4.10;99.90;;;;;;5091557;28;20184;-62
2021/12/09 01:17:57;;;;;;;18.73;10.57;;;4.10;99.90;;;;;;5088805;28;20606;-63
2021/12/09 01:20:25;;;;;;;20.55;10.80;;;4.10;99.90;;;;;;5090851;28;20207;-62
2021/12/09 01:22:56;;;;;;;19.48;10.15;;;4.10;99.90;;;;;;5089894;28;20225;-62
2021/12/09 01:25:25;;;;;;;19.83;11.03;;;4.10;99.90;;;;;;5091220;28;20226;-62
2021/12/09 01:27:54;;;;;;;21.15;10.38;;;4.10;99.90;;;;;;5091442;28;20256;-62
2021/12/09 01:30:21;;;;;;;18.42;10.07;;;4.00;99.90;;;;;;5091370;28;20242;-61
2021/12/09 01:32:51;;;;;;;20.45;10.32;;;4.00;99.90;;;;;;5091388;28;20203;-61
2021/12/09 01:35:27;;;;;;;23.52;10.35;;;4.10;99.90;;;;;;5091620;28;20168;-62
2021/12/09 01:38:00;;;;;;;21.90;10.30;;;4.10;99.90;;;;;;5089739;28;20180;-62
2021/12/09 01:40:27;;;;;;;19.00;9.80;;;4.10;99.90;;;;;;5091290;28;20187;-61
2021/12/09 01:42:54;;;;;;;22.88;9.77;;;4.20;99.90;;;;;;5090620;28;20176;-61
2021/12/09 01:45:19;;;;;;;16.10;9.68;;;4.20;99.90;;;;;;5091221;28;20512;-61
2021/12/09 01:47:45;;;;;;;19.90;9.73;;;4.10;99.90;;;;;;5091652;28;20222;-61
2021/12/09 01:50:12;;;;;;;20.05;9.95;;;4.00;99.90;;;;;;5090861;28;20245;-61
2021/12/09 01:52:38;;;;;;;17.90;9.48;;;4.00;99.90;;;;;;5090610;28;20184;-61
2021/12/09 01:55:06;;;;;;;18.70;9.80;;;3.90;99.90;;;;;;5090763;28;20264;-61
2021/12/09 01:57:32;;;;;;;17.70;9.50;;;3.80;99.90;;;;;;5091119;28;20188;-62
2021/12/09 01:59:57;;;;;;;21.20;10.13;;;3.80;99.90;;;;;;5098797;28;20660;-62
2021/12/09 02:02:23;;;;;;;21.13;10.52;;;3.90;99.90;;;;;;5107043;28;20241;-61
2021/12/09 02:04:49;;;;;;;18.52;9.30;;;3.80;99.90;;;;;;5088529;28;20244;-61
2021/12/09 02:07:15;;;;;;;18.45;10.32;;;3.90;99.90;;;;;;5081248;28;20531;-61
2021/12/09 02:09:40;;;;;;;20.30;9.10;;;3.80;99.90;;;;;;5092397;28;20647;-61
2021/12/09 02:12:07;;;;;;;17.67;10.00;;;3.80;99.90;;;;;;5075245;28;20183;-61
2021/12/09 02:14:32;;;;;;;21.27;9.75;;;3.80;99.90;;;;;;5090921;28;20559;-61
2021/12/09 02:16:58;;;;;;;21.17;10.48;;;3.80;99.90;;;;;;5091594;28;20176;-62
2021/12/09 02:19:23;;;;;;;19.85;9.90;;;3.70;99.90;;;;;;5094819;28;20545;-61
2021/12/09 02:21:49;;;;;;;19.47;10.07;;;3.70;99.90;;;;;;5090455;28;20614;-61
2021/12/09 02:24:17;;;;;;;17.63;9.13;;;3.70;99.90;;;;;;5093250;28;20537;-61
2021/12/09 02:26:45;;;;;;;17.75;9.93;;;3.70;99.90;;;;;;5091001;28;20551;-61
2021/12/09 02:29:13;;;;;;;17.63;9.70;;;3.70;99.90;;;;;;5091159;28;20220;-61
2021/12/09 02:31:40;;;;;;;25.27;10.50;;;3.70;99.90;;;;;;5075693;28;20544;-62
2021/12/09 02:34:07;;;;;;;22.33;9.05;;;3.70;99.90;;;;;;5088774;28;20280;-62
2021/12/09 02:36:37;;;;;;;18.58;9.45;;;3.70;99.90;;;;;;5088412;28;20188;-61
2021/12/09 02:39:14;;;;;;;16.90;9.82;;;3.80;99.90;;;;;;5084559;28;20529;-61
2021/12/09 02:41:41;;;;;;;24.15;9.68;;;3.80;99.90;;;;;;5094485;28;20172;-62
2021/12/09 02:44:09;;;;;;;18.70;10.02;;;3.80;99.90;;;;;;5093978;28;20248;-61
2021/12/09 02:46:38;;;;;;;17.13;9.40;;;3.80;99.90;;;;;;5094334;28;20180;-61
2021/12/09 02:49:07;;;;;;;20.08;10.00;;;3.70;99.90;;;;;;5093860;28;20604;-61
2021/12/09 02:51:34;;;;;;;15.88;8.82;;;3.80;99.90;;;;;;5094395;28;20176;-62
2021/12/09 02:53:59;;;;;;;15.98;9.20;;;3.70;99.90;;;;;;5090938;28;20168;-61
2021/12/09 02:56:25;;;;;;;14.27;7.88;;;3.70;99.90;;;;;;5093974;28;20251;-61
2021/12/09 02:58:51;;;;;;;15.45;8.48;;;3.70;99.90;;;;;;5092435;28;20210;-61
2021/12/09 03:01:20;;;;;;;22.40;8.82;;;3.70;99.90;;;;;;5093637;28;20234;-61
2021/12/09 03:03:51;;;;;;;14.70;7.90;;;3.70;99.90;;;;;;5093536;28;20203;-61
2021/12/09 03:06:22;;;;;;;19.63;8.25;;;3.70;99.90;;;;;;5094375;28;20682;-62
2021/12/09 03:08:48;;;;;;;14.05;7.38;;;3.60;99.90;;;;;;5073982;28;20766;-61
2021/12/09 03:11:19;;;;;;;16.50;7.82;;;3.60;99.90;;;;;;5086754;28;20204;-61
2021/12/09 03:13:47;;;;;;;11.88;6.22;;;3.70;99.90;;;;;;5094013;28;20188;-61
2021/12/09 03:16:12;;;;;;;12.23;7.25;;;3.70;99.90;;;;;;5093116;28;20169;-61
2021/12/09 03:18:44;;;;;;;12.73;6.45;;;3.60;99.90;;;;;;5093632;28;20267;-61
2021/12/09 03:21:40;;;;;;;19.92;6.97;;;3.60;99.90;;;;;;5093174;28;20254;-61
2021/12/09 03:24:09;;;;;;;17.23;6.60;;;3.60;99.90;;;;;;5079991;28;20543;-61
2021/12/09 03:26:42;;;;;;;20.60;6.97;;;3.60;99.90;;;;;;5094179;28;20167;-61
2021/12/09 03:29:12;;;;;;;13.20;6.82;;;3.60;99.90;;;;;;5093778;28;20710;-61
2021/12/09 03:31:40;;;;;;;12.80;6.40;;;3.60;99.90;;;;;;5093979;28;20176;-61
2021/12/09 03:34:06;;;;;;;18.48;6.40;;;3.60;99.90;;;;;;5093562;28;20635;-61
2021/12/09 03:36:32;;;;;;;10.40;6.30;;;3.50;99.90;;;;;;5093927;28;20225;-61
2021/12/09 03:39:00;;;;;;;11.68;6.47;;;3.40;99.90;;;;;;5093600;28;20176;-61
2021/12/09 03:41:27;;;;;;;17.33;6.88;;;3.40;99.90;;;;;;5093764;28;20191;-61
2021/12/09 03:43:53;;;;;;;12.65;6.50;;;3.40;99.90;;;;;;5093366;28;20204;-61
2021/12/09 03:46:18;;;;;;;13.90;7.17;;;3.30;99.90;;;;;;5093758;28;20592;-61
2021/12/09 03:48:44;;;;;;;11.68;6.30;;;3.30;99.90;;;;;;5093650;28;20671;-61
2021/12/09 03:51:09;;;;;;;10.20;5.87;;;3.20;99.90;;;;;;5093196;28;20583;-61
2021/12/09 03:53:35;;;;;;;13.63;5.38;;;3.20;99.90;;;;;;5093284;28;20180;-61
2021/12/09 03:56:01;;;;;;;13.50;6.07;;;3.20;99.90;;;;;;5091828;28;20310;-61
2021/12/09 03:58:26;;;;;;;11.70;5.35;;;3.10;99.90;;;;;;5093339;28;20635;-62
2021/12/09 04:00:53;;;;;;;14.27;5.27;;;3.10;99.90;;;;;;5093655;28;20172;-61
2021/12/09 04:03:18;;;;;;;12.88;5.65;;;3.10;99.90;;;;;;5093995;28;20194;-62
2021/12/09 04:05:45;;;;;;;14.13;5.32;;;3.10;99.90;;;;;;5102912;28;20627;-61
2021/12/09 04:08:11;;;;;;;14.70;6.20;;;3.10;99.90;;;;;;5113691;28;20267;-61
2021/12/09 04:10:38;;;;;;;12.83;5.57;;;3.00;99.90;;;;;;5101953;28;20180;-61
2021/12/09 04:13:03;;;;;;;11.20;6.20;;;2.90;99.90;;;;;;5092753;28;20184;-61
2021/12/09 04:15:29;;;;;;;11.27;5.80;;;2.80;99.90;;;;;;5092819;28;20695;-61
2021/12/09 04:17:55;;;;;;;11.52;5.95;;;2.80;99.90;;;;;;5092399;28;20183;-61
2021/12/09 04:20:21;;;;;;;17.70;6.18;;;2.70;99.90;;;;;;5092974;28;20180;-62
2021/12/09 04:22:49;;;;;;;11.45;6.05;;;2.70;99.90;;;;;;5092329;28;20182;-61
2021/12/09 04:25:20;;;;;;;11.18;5.70;;;2.70;99.90;;;;;;5092312;28;20178;-61
2021/12/09 04:27:48;;;;;;;12.60;6.15;;;2.70;99.90;;;;;;5092622;28;20208;-61
2021/12/09 04:30:14;;;;;;;10.80;6.13;;;2.70;99.90;;;;;;5092482;28;20176;-61
2021/12/09 04:32:40;;;;;;;10.68;6.70;;;2.80;99.90;;;;;;5092537;28;20187;-61
2021/12/09 04:35:07;;;;;;;14.05;7.65;;;2.80;99.90;;;;;;5092112;28;20233;-61
2021/12/09 04:37:33;;;;;;;23.15;12.05;;;2.80;99.90;;;;;;5092344;28;20225;-61
2021/12/09 04:40:00;;;;;;;15.25;7.93;;;2.90;99.90;;;;;;5091473;28;20188;-62
2021/12/09 04:42:27;;;;;;;22.50;8.18;;;2.90;99.90;;;;;;5092589;28;20225;-62
2021/12/09 04:44:53;;;;;;;13.05;6.25;;;2.80;99.90;;;;;;5092108;28;20188;-61
2021/12/09 04:47:19;;;;;;;8.77;5.00;;;2.80;99.90;;;;;;5092145;28;20685;-60
2021/12/09 04:49:44;;;;;;;13.77;4.88;;;2.80;99.90;;;;;;5092664;28;20237;-61
2021/12/09 04:52:10;;;;;;;12.35;4.93;;;2.60;99.90;;;;;;5092226;28;20176;-59
2021/12/09 04:54:36;;;;;;;11.48;5.50;;;2.60;99.90;;;;;;5092216;28;20188;-61
2021/12/09 04:57:05;;;;;;;10.30;4.72;;;2.50;99.90;;;;;;5092284;28;20180;-61
2021/12/09 04:59:31;;;;;;;9.45;5.20;;;2.40;99.90;;;;;;5091596;28;20270;-62
2021/12/09 05:01:57;;;;;;;11.90;4.95;;;2.40;99.90;;;;;;5091986;28;20674;-61
2021/12/09 05:04:23;;;;;;;10.40;4.80;;;2.30;99.90;;;;;;5090895;28;20184;-61
2021/12/09 05:06:48;;;;;;;9.97;4.77;;;2.30;99.90;;;;;;5091173;28;20188;-59
2021/12/09 05:09:17;;;;;;;14.53;4.70;;;2.20;99.90;;;;;;5090801;28;20180;-59
2021/12/09 05:14:20;;;;;;;10.90;4.90;;;2.20;99.90;;;;;;5091800;28;20176;-60
2021/12/09 05:16:53;;;;;;;14.70;5.40;;;2.20;99.90;;;;;;5083394;28;20946;-59
2021/12/09 05:19:19;;;;;;;9.00;4.73;;;2.20;99.90;;;;;;5091449;28;20262;-60
2021/12/09 05:21:45;;;;;;;12.33;5.27;;;2.30;99.90;;;;;;5090647;28;20251;-60
2021/12/09 05:24:14;;;;;;;9.00;4.40;;;2.30;99.90;;;;;;5091798;28;20623;-60
2021/12/09 05:26:48;;;;;;;10.33;4.47;;;2.30;99.90;;;;;;5090409;28;20172;-60
2021/12/09 05:29:16;;;;;;;9.33;4.60;;;2.40;99.90;;;;;;5071944;28;20192;-61
2021/12/09 05:34:26;;;;;;;11.90;5.13;;;2.40;99.90;;;;;;5090891;28;20420;-60
2021/12/09 05:36:52;;;;;;;12.37;4.70;;;2.40;99.90;;;;;;5091605;28;20184;-60
2021/12/09 05:39:19;;;;;;;16.58;5.78;;;2.50;99.90;;;;;;5089785;28;20200;-60
2021/12/09 05:41:46;;;;;;;9.03;5.43;;;2.50;99.90;;;;;;5094103;28;20205;-60
2021/12/09 05:44:13;;;;;;;14.20;6.13;;;2.50;99.90;;;;;;5096066;28;20180;-60
2021/12/09 05:46:44;;;;;;;11.32;6.28;;;2.60;99.90;;;;;;5096078;28;20168;-60
2021/12/09 05:49:11;;;;;;;16.27;6.28;;;2.60;99.90;;;;;;5096109;28;20211;-59
2021/12/09 05:51:38;;;;;;;11.20;5.73;;;2.60;99.90;;;;;;5096039;28;20210;-60
2021/12/09 05:54:04;;;;;;;10.30;5.50;;;2.70;99.90;;;;;;5095957;28;20180;-59
2021/12/09 05:56:30;;;;;;;12.25;5.32;;;2.70;99.90;;;;;;5095878;28;20587;-59
2021/12/09 05:58:55;;;;;;;10.15;4.68;;;2.80;99.90;;;;;;5096022;28;20237;-59
2021/12/09 06:01:22;;;;;;;7.00;4.75;;;2.80;99.90;;;;;;5095764;28;20176;-60
2021/12/09 06:03:48;;;;;;;9.93;4.70;;;2.80;99.90;;;;;;5095773;28;20164;-59
2021/12/09 06:06:13;;;;;;;10.15;4.55;;;2.80;99.90;;;;;;5095700;28;20179;-59
2021/12/09 06:08:40;;;;;;;9.37;4.93;;;2.80;99.90;;;;;;5095623;28;20204;-59
2021/12/09 06:11:07;;;;;;;10.70;4.77;;;2.70;99.90;;;;;;5095560;28;20168;-59
2021/12/09 06:13:36;;;;;;;7.57;4.38;;;2.70;99.90;;;;;;5095557;28;20675;-59
2021/12/09 06:16:07;;;;;;;8.20;4.80;;;2.70;99.90;;;;;;5095586;28;20180;-59
2021/12/09 06:18:33;;;;;;;10.32;5.25;;;2.70;99.90;;;;;;5095579;28;20259;-59
2021/12/09 06:20:59;;;;;;;14.27;6.43;;;2.70;99.90;;;;;;5095692;28;20325;-59
2021/12/09 06:23:25;;;;;;;11.57;5.23;;;2.70;99.90;;;;;;5095409;28;20263;-59
2021/12/09 06:25:50;;;;;;;9.73;5.20;;;2.70;99.90;;;;;;5095520;28;20645;-59
2021/12/09 06:28:17;;;;;;;12.65;5.88;;;2.70;99.90;;;;;;5095316;28;20223;-60
2021/12/09 06:30:43;;;;;;;13.20;5.40;;;2.70;99.90;;;;;;5095255;28;20180;-60
2021/12/09 06:33:09;;;;;;;14.53;4.90;;;2.60;99.90;;;;;;5095389;28;20168;-60
2021/12/09 06:35:36;;;;;;;12.53;5.10;;;2.60;99.90;;;;;;5095255;28;20183;-59
2021/12/09 06:38:02;;;;;;;11.83;5.73;;;2.50;99.90;;;;;;5095115;28;20216;-60
2021/12/09 06:40:28;;;;;;;10.47;5.43;;;2.50;99.90;;;;;;5095065;28;20172;-59
2021/12/09 06:42:54;;;;;;;12.03;6.63;;;2.40;99.90;;;;;;5095205;28;20187;-59
2021/12/09 06:45:21;;;;;;;13.43;6.67;;;2.40;99.90;;;;;;5094996;28;20611;-59
2021/12/09 06:47:49;;;;;;;12.83;6.73;;;2.50;99.90;;;;;;5094826;28;20264;-60
2021/12/09 06:50:17;;;;;;;17.67;8.33;;;2.50;99.90;;;;;;5094908;28;20238;-60
2021/12/09 06:52:42;;;;;;;16.00;8.33;;;2.50;99.90;;;;;;5094839;28;20271;-60
2021/12/09 06:55:10;;;;;;;17.87;9.17;;;2.50;99.90;;;;;;5094626;28;20316;-60
2021/12/09 06:57:38;;;;;;;19.50;10.40;;;2.60;99.90;;;;;;5094768;28;20187;-60
2021/12/09 07:00:11;;;;;;;19.20;9.30;;;2.60;99.90;;;;;;5094708;28;20203;-60
2021/12/09 07:02:37;;;;;;;19.67;8.07;;;2.60;99.90;;;;;;5094676;28;20238;-60
2021/12/09 07:05:04;;;;;;;17.13;7.23;;;2.60;99.90;;;;;;5094845;28;20172;-60
2021/12/09 07:07:30;;;;;;;13.57;8.00;;;2.60;99.90;;;;;;5094555;28;20211;-60
2021/12/09 07:09:55;;;;;;;17.97;7.60;;;2.60;99.90;;;;;;5094678;28;20180;-60
2021/12/09 07:12:21;;;;;;;15.57;7.63;;;2.60;99.90;;;;;;5094508;28;20222;-60
2021/12/09 07:14:47;;;;;;;15.37;7.37;;;2.60;99.90;;;;;;5094558;28;20259;-60
2021/12/09 07:17:12;;;;;;;14.43;7.43;;;2.60;99.90;;;;;;5094484;28;20631;-60
2021/12/09 07:19:39;;;;;;;20.85;8.02;;;2.60;99.90;;;;;;5094375;28;20259;-60
2021/12/09 07:22:05;;;;;;;17.00;7.07;;;2.70;99.90;;;;;;5094279;28;20176;-60
2021/12/09 07:24:31;;;;;;;21.50;7.85;;;2.70;99.90;;;;;;5094267;28;20662;-60
2021/12/09 07:26:57;;;;;;;14.90;8.38;;;2.80;99.90;;;;;;5094186;28;20191;-60
2021/12/09 07:29:27;;;;;;;14.65;7.88;;;2.80;99.90;;;;;;5094220;28;20180;-59
2021/12/09 07:31:52;;;;;;;16.08;7.88;;;2.80;99.90;;;;;;5094352;28;20173;-59
2021/12/09 07:34:18;;;;;;;14.98;7.97;;;2.80;99.90;;;;;;5094203;28;20184;-60
2021/12/09 07:36:44;;;;;;;16.50;8.50;;;2.90;99.90;;;;;;5094052;28;20634;-59
2021/12/09 07:39:10;;;;;;;15.65;7.95;;;2.90;99.90;;;;;;5094139;28;20180;-60
2021/12/09 07:41:36;;;;;;;21.10;10.18;;;2.90;99.90;;;;;;5094004;28;20206;-59
2021/12/09 07:44:02;;;;;;;20.95;7.80;;;2.90;99.90;;;;;;5093995;28;20183;-59
2021/12/09 07:46:33;;;;;;;19.20;8.18;;;3.00;99.90;;;;;;5093746;28;20321;-59
2021/12/09 07:48:58;;;;;;;14.48;8.55;;;3.00;99.90;;;;;;5094017;28;20296;-59
2021/12/09 07:51:24;;;;;;;15.47;8.87;;;3.00;99.90;;;;;;5093764;28;20230;-60
2021/12/09 07:53:50;;;;;;;18.40;9.40;;;3.00;99.90;;;;;;5093872;28;20183;-59
2021/12/09 07:56:16;;;;;;;14.52;8.10;;;3.10;99.90;;;;;;5093605;28;20772;-60
2021/12/09 07:58:41;;;;;;;13.27;8.47;;;3.10;99.90;;;;;;5093734;28;20556;-60
2021/12/09 08:01:07;;;;;;;11.57;7.60;;;3.10;99.90;;;;;;5093556;28;20176;-59
2021/12/09 08:03:33;;;;;;;13.97;7.23;;;3.10;99.90;;;;;;5092989;28;20531;-60
2021/12/09 08:05:59;;;;;;;16.52;7.85;;;3.20;99.90;;;;;;5093534;28;20263;-59
2021/12/09 08:08:25;;;;;;;20.03;8.00;;;3.20;99.90;;;;;;5093147;28;20793;-59
2021/12/09 08:10:50;;;;;;;16.02;6.90;;;3.20;99.90;;;;;;5093338;28;20169;-59
2021/12/09 08:13:16;;;;;;;12.63;7.00;;;3.20;99.90;;;;;;5093388;28;20180;-60
2021/12/09 08:15:48;;;;;;;12.43;6.73;;;3.20;99.90;;;;;;5093212;28;20184;-59
2021/12/09 08:18:25;;;;;;;14.65;7.38;;;3.20;99.90;;;;;;5093376;28;20317;-59
2021/12/09 08:20:57;;;;;;;14.13;7.43;;;3.20;99.90;;;;;;5093406;28;20266;-60
2021/12/09 08:23:24;;;;;;;16.80;7.70;;;3.20;99.90;;;;;;5093176;28;20245;-59
2021/12/09 08:25:50;;;;;;;17.52;8.80;;;3.20;99.90;;;;;;5093250;28;20168;-59
2021/12/09 08:28:16;;;;;;;15.83;8.43;;;3.20;99.90;;;;;;5092907;28;20682;-60
2021/12/09 08:30:42;;;;;;;22.57;8.60;;;3.20;99.90;;;;;;5092920;28;20194;-60
2021/12/09 08:33:08;;;;;;;14.60;9.00;;;3.20;99.90;;;;;;5092885;28;20597;-59
2021/12/09 08:35:36;;;;;;;19.58;9.35;;;3.20;99.90;;;;;;5092984;28;20541;-60
2021/12/09 08:38:03;;;;;;;16.97;8.87;;;3.20;99.90;;;;;;5093006;28;20164;-59
2021/12/09 08:40:29;;;;;;;19.98;9.43;;;3.20;99.90;;;;;;5092746;28;20175;-59
2021/12/09 08:42:55;;;;;;;19.33;9.68;;;3.20;99.90;;;;;;5092910;28;20697;-59
2021/12/09 08:45:21;;;;;;;15.77;8.50;;;3.30;99.90;;;;;;5092718;28;20733;-59
2021/12/09 08:47:48;;;;;;;18.30;8.97;;;3.30;99.90;;;;;;5092490;28;20690;-59
2021/12/09 08:50:19;;;;;;;18.87;9.73;;;3.30;99.90;;;;;;5092750;28;20627;-60
2021/12/09 08:52:45;;;;;;;15.87;9.00;;;3.30;99.90;;;;;;5092486;28;20191;-59
2021/12/09 08:55:11;;;;;;;21.37;8.60;;;3.30;99.90;;;;;;5092393;28;20262;-59
2021/12/09 08:57:37;;;;;;;18.70;9.43;;;3.40;99.90;;;;;;5092657;28;20273;-59
2021/12/09 09:00:09;;;;;;;17.43;8.87;;;3.40;99.90;;;;;;5092547;28;20680;-59
2021/12/09 09:02:36;;;;;;;19.37;9.17;;;3.40;99.90;;;;;;5092563;28;20176;-60
2021/12/09 09:05:03;;;;;;;19.77;8.98;;;3.40;99.90;;;;;;5092565;28;20233;-59
2021/12/09 09:07:28;;;;;;;17.47;9.40;;;3.50;99.90;;;;;;5092265;28;20551;-59
2021/12/09 09:09:54;;;;;;;22.73;9.30;;;3.50;99.90;;;;;;5092566;28;20191;-59
2021/12/09 09:12:19;;;;;;;15.93;8.97;;;3.50;99.90;;;;;;5092467;28;20266;-60
2021/12/09 09:14:45;;;;;;;19.90;9.65;;;3.50;99.90;;;;;;5091411;28;20172;-59
2021/12/09 09:17:11;;;;;;;21.00;9.90;;;3.50;99.90;;;;;;5092414;28;20540;-59
2021/12/09 09:19:37;;;;;;;20.60;9.47;;;3.60;99.90;;;;;;5092266;28;20662;-60
2021/12/09 09:22:03;;;;;;;17.90;9.53;;;3.60;99.90;;;;;;5092282;28;20176;-60
2021/12/09 09:24:29;;;;;;;17.30;8.50;;;3.50;99.90;;;;;;5091010;28;20218;-59
2021/12/09 09:26:55;;;;;;;15.73;8.70;;;3.50;99.90;;;;;;5092248;28;20179;-59
2021/12/09 09:29:21;;;;;;;20.83;9.60;;;3.50;99.90;;;;;;5092097;28;20286;-60
2021/12/09 09:31:46;;;;;;;20.73;9.60;;;3.50;99.90;;;;;;5091948;28;20176;-60
2021/12/09 09:34:12;;;;;;;19.27;9.02;;;3.40;99.90;;;;;;5092085;28;20679;-57
2021/12/09 09:36:44;;;;;;;16.30;8.88;;;3.40;99.90;;;;;;5092080;28;20176;-57
2021/12/09 09:39:17;;;;;;;17.83;9.32;;;3.40;99.90;;;;;;5092148;28;20255;-57
2021/12/09 09:42:18;;;;;;;25.05;10.05;;;3.30;99.90;;;;;;5092005;28;20179;-57
2021/12/09 09:44:57;;;;;;;19.37;8.93;;;3.30;99.90;;;;;;5091941;28;20224;-57
2021/12/09 09:47:27;;;;;;;17.93;9.27;;;3.20;99.90;;;;;;5091911;28;20297;-57
2021/12/09 09:49:54;;;;;;;16.20;8.73;;;3.20;99.90;;;;;;5092092;28;20175;-59
2021/12/09 09:52:20;;;;;;;18.10;8.73;;;3.20;99.90;;;;;;5091989;28;20176;-59
2021/12/09 09:54:46;;;;;;;17.17;9.40;;;3.10;99.90;;;;;;5091635;28;20365;-59
2021/12/09 09:57:12;;;;;;;20.30;10.87;;;3.10;99.90;;;;;;5092096;28;20305;-59
2021/12/09 09:59:40;;;;;;;19.37;8.50;;;3.10;99.90;;;;;;5091819;28;20208;-60
2021/12/09 10:02:08;;;;;;;20.97;9.80;;;3.10;99.90;;;;;;5091896;28;20260;-59
2021/12/09 10:04:44;;;;;;;16.97;8.83;;;3.10;99.90;;;;;;5091872;28;20176;-59
2021/12/09 10:07:13;;;;;;;15.43;8.70;;;3.10;99.90;;;;;;5091826;28;20176;-59
2021/12/09 10:09:39;;;;;;;19.50;8.80;;;3.10;99.90;;;;;;5091867;28;20179;-59
2021/12/09 10:12:05;;;;;;;19.10;8.63;;;3.10;99.90;;;;;;5091758;28;20245;-59
2021/12/09 10:14:33;;;;;;;22.57;9.13;;;3.10;99.90;;;;;;5091724;28;20253;-60
2021/12/09 10:17:04;;;;;;;19.10;8.30;;;3.10;99.90;;;;;;5091742;28;20189;-59
2021/12/09 10:19:31;;;;;;;19.53;8.67;;;3.10;99.90;;;;;;5091697;28;20259;-59
2021/12/09 10:22:07;;;;;;;14.70;8.53;;;3.20;99.90;;;;;;5091825;28;20172;-59
2021/12/09 10:24:34;;;;;;;12.50;7.50;;;3.20;99.90;;;;;;5091535;28;20199;-60
2021/12/09 10:27:00;;;;;;;17.42;8.77;;;3.20;99.90;;;;;;5094895;28;20169;-59
2021/12/09 10:29:31;;;;;;;16.13;8.27;;;3.20;99.90;;;;;;5095073;28;20686;-60
2021/12/09 10:32:01;;;;;;;17.50;8.07;;;3.30;99.90;;;;;;5094098;28;20643;-59
2021/12/09 10:34:33;;;;;;;14.38;8.65;;;3.40;99.90;;;;;;5095145;28;20184;-59
2021/12/09 10:37:11;;;;;;;19.65;7.80;;;3.40;99.90;;;;;;5095347;28;20177;-59
2021/12/09 10:39:40;;;;;;;14.05;8.43;;;3.50;99.90;;;;;;5095278;28;20249;-59
2021/12/09 10:42:17;;;;;;;15.93;7.80;;;3.50;99.90;;;;;;5095155;28;20168;-59
2021/12/09 10:45:08;;;;;;;15.75;7.20;;;3.50;99.90;;;;;;5095171;28;20259;-59
2021/12/09 10:50:38;;;;;;;14.00;6.80;;;3.50;99.90;;;;;;5095113;28;20258;-59
2021/12/09 10:55:55;;;;;;;16.47;7.17;;;3.60;99.90;;;;;;5094657;28;20702;-59
2021/12/09 10:58:32;;;;;;;13.02;6.70;;;3.60;99.90;;;;;;5094760;28;20172;-60
2021/12/09 11:01:02;;;;;;;16.35;7.75;;;3.60;99.90;;;;;;5094967;28;20174;-59
2021/12/09 11:03:45;;;;;;;15.02;6.85;;;3.60;99.90;;;;;;5094639;28;20188;-60
2021/12/09 11:06:12;;;;;;;13.85;7.28;;;3.60;99.90;;;;;;5094731;28;20164;-59
2021/12/09 11:08:44;;;;;;;13.93;6.95;;;3.60;99.90;;;;;;5094594;28;20219;-60
2021/12/09 11:11:25;;;;;;;18.77;7.28;;;3.60;99.90;;;;;;5094792;28;20168;-59
2021/12/09 11:13:57;;;;;;;17.97;8.87;;;3.60;99.90;;;;;;5094695;28;20263;-60
2021/12/09 11:16:36;;;;;;;11.52;7.60;;;3.60;99.90;;;;;;5094420;28;20654;-59
2021/12/09 11:19:11;;;;;;;16.97;7.90;;;3.60;99.90;;;;;;5094546;28;20267;-59
2021/12/09 11:21:45;;;;;;;13.57;7.37;;;3.50;99.90;;;;;;5094320;28;20207;-59
2021/12/09 11:24:13;;;;;;;17.87;8.33;;;3.50;99.90;;;;;;5094482;28;20182;-59
2021/12/09 11:29:39;;;;;;;14.90;7.93;;;3.50;99.90;;;;;;5094343;28;20220;-60
2021/12/09 11:32:22;;;;;;;14.23;6.57;;;3.50;99.90;;;;;;5094244;28;20180;-59
2021/12/09 11:35:01;;;;;;;13.98;6.55;;;3.50;99.90;;;;;;5094045;28;20180;-59
2021/12/09 11:40:07;;;;;;;11.75;6.70;;;3.60;99.90;;;;;;5094237;28;20594;-59
2021/12/09 11:42:45;;;;;;;18.50;7.13;;;3.60;99.90;;;;;;5093969;28;20186;-59
2021/12/09 11:45:13;;;;;;;12.30;6.93;;;3.60;99.90;;;;;;5093957;28;20733;-59
2021/12/09 11:47:40;;;;;;;17.50;7.43;;;3.60;99.90;;;;;;5093689;28;20679;-59
2021/12/09 11:50:08;;;;;;;16.77;7.05;;;3.50;99.90;;;;;;5093731;28;20713;-59
2021/12/09 11:52:36;;;;;;;15.02;7.03;;;3.50;99.90;;;;;;5092498;28;20176;-59
2021/12/09 11:55:05;;;;;;;13.18;7.57;;;3.40;99.90;;;;;;5093668;28;20327;-59
2021/12/09 11:57:40;;;;;;;13.13;8.37;;;3.40;99.90;;;;;;5093635;28;20173;-60
2021/12/09 12:11:57;;;;;;;19.33;7.77;;;3.40;99.90;;;;;;5093803;28;20238;-59
2021/12/09 12:14:35;;;;;;;10.13;6.23;;;3.40;99.90;;;;;;5093463;28;20195;-59
2021/12/09 12:17:12;;;;;;;13.43;6.30;;;3.40;99.90;;;;;;5093457;28;20174;-59
2021/12/09 12:20:14;;;;;;;10.80;6.07;;;3.40;99.90;;;;;;5093187;28;20222;-59
2021/12/09 12:28:34;;;;;;;10.70;5.75;;;3.50;99.90;;;;;;5093239;28;20220;-59
2021/12/09 12:31:21;;;;;;;12.07;5.63;;;3.50;99.90;;;;;;5093148;28;20191;-60
2021/12/09 12:37:13;;;;;;;12.80;5.30;;;3.50;99.90;;;;;;5092924;28;20184;-59
2021/12/09 12:39:58;;;;;;;19.00;6.47;;;3.50;99.90;;;;;;5092911;28;20704;-59
2021/12/09 12:50:33;;;;;;;12.30;4.88;;;3.60;99.90;;;;;;5092834;28;20176;-59
2021/12/09 12:53:33;;;;;;;16.83;6.20;;;3.50;99.90;;;;;;5091546;28;20176;-59
2021/12/09 12:56:17;;;;;;;11.02;5.40;;;3.50;99.90;;;;;;5091182;28;20223;-59
2021/12/09 12:59:10;;;;;;;12.53;5.23;;;3.50;99.90;;;;;;5092625;28;20180;-59
2021/12/09 13:01:41;;;;;;;11.13;5.17;;;3.50;99.90;;;;;;5092623;28;20662;-59
2021/12/09 13:04:41;;;;;;;12.17;5.10;;;3.50;99.90;;;;;;5092443;28;20688;-59
2021/12/09 13:13:26;;;;;;;10.97;5.07;;;3.80;99.90;;;;;;5092464;28;20175;-59
2021/12/09 13:16:38;;;;;;;9.23;4.60;;;3.80;99.90;;;;;;5092402;28;20305;-59
2021/12/09 13:19:28;;;;;;;15.38;5.30;;;3.80;99.90;;;;;;5092349;28;20180;-59
2021/12/09 13:21:58;;;;;;;17.08;6.20;;;3.80;99.90;;;;;;5092413;28;20172;-59
2021/12/09 13:24:49;;;;;;;18.50;6.40;;;3.90;99.90;;;;;;5092130;28;20224;-60
2021/12/09 13:36:12;;;;;;;11.15;3.45;;;4.00;99.90;;;;;;5092115;28;20176;-59
2021/12/09 13:55:24;;;;;;;6.43;2.60;;;4.10;99.90;;;;;;5091233;28;20220;-59
2021/12/09 13:57:57;;;;;;;7.05;2.38;;;4.10;99.90;;;;;;5087851;28;20206;-59
2021/12/09 14:00:26;;;;;;;14.07;5.68;;;4.10;99.90;;;;;;5072312;28;20176;-60
2021/12/09 14:03:13;;;;;;;11.10;3.85;;;4.10;99.90;;;;;;5083201;28;20183;-59
2021/12/09 14:06:11;;;;;;;6.13;3.05;;;4.10;99.90;;;;;;5101265;28;20171;-59
2021/12/09 14:08:39;;;;;;;13.07;4.85;;;4.10;99.90;;;;;;5114248;28;20261;-59
2021/12/09 14:14:16;;;;;;;21.60;7.10;;;4.10;99.90;;;;;;5116119;28;20216;-60
2021/12/09 14:16:56;;;;;;;5.80;2.88;;;4.10;99.90;;;;;;5075280;28;20520;-59